Time;durP1;ratioP1;P1;durP2;ratioP2;P2;SDS_P1;SDS_P2;PMS_P1;PMS_P2;Temp;Humidity;BMP_temperature;BMP_pressure;BME280_temperature;BME280_humidity;BME280_pressure;Samples;Min_cycle;Max_cycle;Signal;HPM_P1;HPM_P2
2022/01/22 00:00:37;;;;;;;13.13;3.33;;;5.60;99.90;;;;;;4841801;29;20121;-82
2022/01/22 00:03:04;;;;;;;9.43;3.20;;;5.60;99.90;;;;;;4849856;29;20397;-82
2022/01/22 00:05:31;;;;;;;13.18;2.80;;;5.60;99.90;;;;;;4848638;29;20025;-82
2022/01/22 00:07:57;;;;;;;17.70;3.40;;;5.60;99.90;;;;;;4849018;29;20044;-81
2022/01/22 00:10:24;;;;;;;9.60;2.45;;;5.60;99.90;;;;;;4857538;29;20029;-81
2022/01/22 00:15:22;;;;;;;14.93;3.42;;;5.60;99.90;;;;;;4841319;29;20544;-83
2022/01/22 00:17:50;;;;;;;9.23;2.60;;;5.60;99.90;;;;;;4845401;29;20529;-82
2022/01/22 00:20:19;;;;;;;9.45;1.55;;;5.60;99.90;;;;;;4860576;29;20040;-82
2022/01/22 00:22:46;;;;;;;12.00;2.72;;;5.60;99.90;;;;;;4856291;29;20037;-80
2022/01/22 00:25:15;;;;;;;20.30;3.05;;;5.70;99.90;;;;;;4856496;29;20486;-80
2022/01/22 00:27:43;;;;;;;15.00;3.38;;;5.60;99.90;;;;;;4857754;29;20510;-81
2022/01/22 00:30:22;;;;;;;14.18;3.47;;;5.60;99.90;;;;;;4859154;29;20529;-82
2022/01/22 00:32:49;;;;;;;15.20;3.28;;;5.70;99.90;;;;;;4828859;29;20049;-81
2022/01/22 00:35:18;;;;;;;13.50;3.75;;;5.70;99.90;;;;;;4835904;29;20061;-83
2022/01/22 00:37:47;;;;;;;16.23;5.78;;;5.60;99.90;;;;;;4839510;29;20038;-79
2022/01/22 00:40:18;;;;;;;12.93;4.43;;;5.70;99.90;;;;;;4842491;29;20029;-79
2022/01/22 00:42:53;;;;;;;16.08;3.58;;;5.70;99.90;;;;;;4858566;29;20398;-79
2022/01/22 00:45:21;;;;;;;10.85;2.53;;;5.70;99.90;;;;;;4856159;29;20046;-79
2022/01/22 00:47:51;;;;;;;14.93;3.28;;;5.70;99.90;;;;;;4861482;29;20034;-78
2022/01/22 00:50:23;;;;;;;15.57;5.55;;;5.70;99.90;;;;;;4860846;29;20048;-83
2022/01/22 00:52:52;;;;;;;16.77;3.85;;;5.70;99.90;;;;;;4859185;29;20064;-81
2022/01/22 00:55:19;;;;;;;17.92;4.45;;;5.70;99.90;;;;;;4860690;29;20048;-80
2022/01/22 00:57:45;;;;;;;25.73;11.38;;;5.70;99.90;;;;;;4859248;29;20038;-78
2022/01/22 01:00:14;;;;;;;14.10;6.32;;;5.70;99.90;;;;;;4840969;29;20056;-81
2022/01/22 01:02:44;;;;;;;19.42;6.65;;;5.70;99.90;;;;;;4855731;29;20045;-85
2022/01/22 01:05:12;;;;;;;14.63;5.82;;;5.80;99.90;;;;;;4833552;29;20041;-80
2022/01/22 01:07:41;;;;;;;10.25;3.45;;;5.70;99.90;;;;;;4857897;29;20034;-78
2022/01/22 01:10:14;;;;;;;14.15;3.75;;;5.70;99.90;;;;;;4850863;29;20041;-80
2022/01/22 01:12:42;;;;;;;13.82;3.33;;;5.80;99.90;;;;;;4842391;29;20060;-83
2022/01/22 01:18:05;;;;;;;12.35;3.63;;;5.70;99.90;;;;;;4861129;29;20044;-81
2022/01/22 01:34:24;;;;;;;12.63;4.50;;;5.80;99.90;;;;;;4845061;29;20594;-82
2022/01/22 01:36:50;;;;;;;15.65;3.65;;;5.80;99.90;;;;;;4858839;29;20037;-84
2022/01/22 01:39:32;;;;;;;18.08;4.60;;;5.80;99.90;;;;;;4847247;29;20044;-81
2022/01/22 01:42:05;;;;;;;12.93;3.65;;;5.80;99.90;;;;;;4875623;29;20036;-82
2022/01/22 01:44:35;;;;;;;17.80;4.43;;;5.80;99.90;;;;;;4860871;29;20041;-85
2022/01/22 01:47:16;;;;;;;14.93;4.05;;;5.80;99.90;;;;;;4867878;29;20047;-84
2022/01/22 01:49:44;;;;;;;10.68;3.65;;;5.80;99.90;;;;;;4847041;29;20484;-85
2022/01/22 01:52:52;;;;;;;13.68;3.50;;;5.80;99.90;;;;;;4844209;29;20040;-81
2022/01/22 01:55:19;;;;;;;13.48;4.07;;;5.80;99.90;;;;;;4847699;29;20406;-80
2022/01/22 01:57:46;;;;;;;13.13;4.82;;;5.80;99.90;;;;;;4843800;29;20040;-78
2022/01/22 02:00:23;;;;;;;10.38;3.40;;;5.80;99.90;;;;;;4862662;29;20033;-78
2022/01/22 02:02:58;;;;;;;20.33;4.45;;;5.80;99.90;;;;;;4858344;29;20044;-78
2022/01/22 02:05:27;;;;;;;11.65;3.80;;;5.80;99.90;;;;;;4846786;29;20385;-79
2022/01/22 02:07:58;;;;;;;16.13;4.30;;;5.80;99.90;;;;;;4860505;29;20393;-78
2022/01/22 02:10:35;;;;;;;18.13;4.57;;;5.80;99.90;;;;;;4838548;29;20040;-80
2022/01/22 02:24:19;;;;;;;13.23;4.68;;;5.90;99.90;;;;;;4840762;29;20048;-77
2022/01/22 02:26:48;;;;;;;13.35;4.90;;;5.90;99.90;;;;;;4843796;29;20029;-80
2022/01/22 02:29:17;;;;;;;16.80;6.18;;;5.90;99.90;;;;;;4846243;29;20033;-79
2022/01/22 02:35:09;;;;;;;19.67;5.93;;;5.90;99.90;;;;;;4797222;29;20446;-77
2022/01/22 02:37:39;;;;;;;10.43;4.07;;;5.90;99.90;;;;;;4828434;29;20048;-79
2022/01/22 02:40:12;;;;;;;11.20;4.82;;;5.90;99.90;;;;;;4832038;29;20052;-80
2022/01/22 02:42:47;;;;;;;14.25;4.30;;;5.90;99.90;;;;;;4864011;29;20472;-79
2022/01/22 02:45:19;;;;;;;12.70;4.15;;;5.90;99.90;;;;;;4846085;29;20037;-79
2022/01/22 02:47:46;;;;;;;21.88;7.55;;;5.90;99.90;;;;;;4834889;29;20488;-79
2022/01/22 02:50:15;;;;;;;23.40;6.70;;;5.90;99.90;;;;;;4850694;29;20032;-78
2022/01/22 02:52:42;;;;;;;17.63;6.38;;;5.90;99.90;;;;;;4850780;29;20147;-78
2022/01/22 02:55:11;;;;;;;16.23;4.65;;;5.90;99.90;;;;;;4847994;29;20154;-78
2022/01/22 02:57:43;;;;;;;18.98;5.30;;;5.90;99.90;;;;;;4848626;29;20041;-78
2022/01/22 03:00:18;;;;;;;14.90;5.50;;;5.90;99.90;;;;;;4862462;29;20040;-79
2022/01/22 03:02:51;;;;;;;11.95;4.38;;;5.90;99.90;;;;;;4861133;29;20052;-78
2022/01/22 03:05:20;;;;;;;15.95;4.32;;;5.90;99.90;;;;;;4830975;29;20476;-79
2022/01/22 03:07:52;;;;;;;15.80;4.63;;;6.00;99.90;;;;;;4863990;29;20033;-80
2022/01/22 03:11:16;;;;;;;22.08;5.00;;;6.00;99.90;;;;;;4866502;29;20404;-81
2022/01/22 03:16:28;;;;;;;21.92;5.43;;;6.00;99.90;;;;;;4882495;29;20119;-78
2022/01/22 03:19:30;;;;;;;16.65;4.63;;;6.00;99.90;;;;;;4864712;29;20033;-79
2022/01/22 03:22:12;;;;;;;13.65;4.20;;;6.00;99.90;;;;;;4868468;29;20049;-80
2022/01/22 03:27:31;;;;;;;11.10;4.00;;;6.00;99.90;;;;;;4867564;29;20045;-78
2022/01/22 03:30:00;;;;;;;16.83;6.25;;;6.10;99.90;;;;;;4876876;29;20519;-79
2022/01/22 03:32:32;;;;;;;16.40;4.90;;;6.10;99.90;;;;;;4860170;29;20053;-78
2022/01/22 03:35:10;;;;;;;8.75;4.60;;;6.10;99.90;;;;;;4849409;29;20342;-77
2022/01/22 03:37:41;;;;;;;22.77;4.72;;;6.10;99.90;;;;;;4846947;29;20039;-78
2022/01/22 03:40:12;;;;;;;10.20;4.82;;;6.10;99.90;;;;;;4849580;29;20037;-80
2022/01/22 03:42:48;;;;;;;17.77;5.85;;;6.10;99.90;;;;;;4863070;29;20822;-81
2022/01/22 03:45:22;;;;;;;22.40;5.72;;;6.10;99.90;;;;;;4865487;29;20033;-82
2022/01/22 03:48:12;;;;;;;11.73;3.97;;;6.10;99.90;;;;;;4841173;29;20044;-81
2022/01/22 03:50:49;;;;;;;26.65;6.30;;;6.10;99.90;;;;;;4879479;29;20048;-79
2022/01/22 03:53:18;;;;;;;18.92;5.78;;;6.10;99.90;;;;;;4845456;29;20044;-80
2022/01/22 03:56:03;;;;;;;14.80;5.78;;;6.10;99.90;;;;;;4834213;29;20041;-81
2022/01/22 03:58:39;;;;;;;15.73;4.93;;;6.20;99.90;;;;;;4861219;29;20040;-81
2022/01/22 04:01:43;;;;;;;15.32;6.05;;;6.10;99.90;;;;;;4869974;29;20037;-81
2022/01/22 04:10:18;;;;;;;15.93;5.43;;;6.10;99.90;;;;;;4857828;29;20052;-81
2022/01/22 04:13:07;;;;;;;20.00;6.10;;;6.20;99.90;;;;;;4856573;29;20045;-81
2022/01/22 04:15:38;;;;;;;16.83;5.72;;;6.20;99.90;;;;;;4861213;29;20422;-80
2022/01/22 04:26:58;;;;;;;12.88;4.25;;;6.20;99.90;;;;;;4854169;29;20032;-79
2022/01/22 04:29:32;;;;;;;11.35;3.90;;;6.20;99.90;;;;;;4831736;29;20060;-80
2022/01/22 04:32:04;;;;;;;12.70;4.40;;;6.20;99.90;;;;;;4845598;29;20052;-81
2022/01/22 04:34:31;;;;;;;16.10;4.15;;;6.20;99.90;;;;;;4846002;29;20038;-80
2022/01/22 04:36:57;;;;;;;16.35;4.30;;;6.20;99.90;;;;;;4864068;29;20753;-81
2022/01/22 04:39:26;;;;;;;16.50;3.95;;;6.20;99.90;;;;;;4829469;29;20057;-80
2022/01/22 04:42:01;;;;;;;11.32;3.67;;;6.20;99.90;;;;;;4843646;29;20060;-80
2022/01/22 04:44:37;;;;;;;11.05;3.60;;;6.30;99.90;;;;;;4849553;29;20032;-80
2022/01/22 04:52:43;;;;;;;12.60;3.10;;;6.30;99.90;;;;;;4855363;29;20041;-80
2022/01/22 04:55:11;;;;;;;9.35;3.40;;;6.30;99.90;;;;;;4860051;29;20033;-80
2022/01/22 04:57:43;;;;;;;7.65;2.45;;;6.30;99.90;;;;;;4847131;29;20041;-80
2022/01/22 05:00:17;;;;;;;;;;;6.30;99.90;;;;;;4846769;29;20053;-81
2022/01/22 05:03:10;;;;;;;17.27;3.05;;;6.30;99.90;;;;;;4818817;29;19916;-80
2022/01/22 05:05:59;;;;;;;11.77;3.10;;;6.30;99.90;;;;;;4857728;29;20470;-80
2022/01/22 05:08:29;;;;;;;12.13;2.40;;;6.20;99.90;;;;;;4855991;29;20136;-80
2022/01/22 05:11:18;;;;;;;14.50;3.60;;;6.20;99.90;;;;;;4856501;29;20057;-81
2022/01/22 05:13:52;;;;;;;10.32;3.13;;;6.20;99.90;;;;;;4861274;29;20057;-81
2022/01/22 05:16:20;;;;;;;8.50;2.90;;;6.20;99.90;;;;;;4861055;29;20053;-81
2022/01/22 05:18:59;;;;;;;8.75;2.55;;;6.20;99.90;;;;;;4849079;29;20041;-80
2022/01/22 05:21:31;;;;;;;13.40;2.40;;;6.20;99.90;;;;;;4877931;29;20422;-81
2022/01/22 05:24:03;;;;;;;10.05;3.05;;;6.20;99.90;;;;;;4849344;29;20048;-80
2022/01/22 05:37:43;;;;;;;12.65;2.53;;;6.30;99.90;;;;;;4871421;29;20405;-81
2022/01/22 05:40:10;;;;;;;14.77;3.22;;;6.30;99.90;;;;;;4865598;29;20401;-80
2022/01/22 05:42:37;;;;;;;7.68;2.30;;;6.30;99.90;;;;;;4858140;29;20040;-81
2022/01/22 05:45:07;;;;;;;10.07;2.17;;;6.30;99.90;;;;;;4860708;29;20041;-81
2022/01/22 05:47:36;;;;;;;12.57;1.80;;;6.30;99.90;;;;;;4846256;29;20044;-80
2022/01/22 05:50:09;;;;;;;5.93;1.73;;;6.20;99.90;;;;;;4834697;29;20052;-79
2022/01/22 05:52:49;;;;;;;10.23;2.30;;;6.20;99.90;;;;;;4859903;29;20052;-80
2022/01/22 06:01:08;;;;;;;;;;;6.30;99.90;;;;;;4848119;29;20504;-79
2022/01/22 06:03:57;;;;;;;9.63;2.42;;;6.30;99.90;;;;;;4860829;29;19912;-79
2022/01/22 06:06:24;;;;;;;10.93;1.70;;;6.30;99.90;;;;;;4853512;29;20032;-79
2022/01/22 06:08:54;;;;;;;7.80;2.15;;;6.30;99.90;;;;;;4861660;29;20033;-78
2022/01/22 06:11:25;;;;;;;7.50;1.48;;;6.30;99.90;;;;;;4849051;29;20032;-79
2022/01/22 06:13:53;;;;;;;5.57;1.80;;;6.40;99.90;;;;;;4827712;29;20061;-78
2022/01/22 06:16:34;;;;;;;9.25;1.95;;;6.40;99.90;;;;;;4840739;29;20049;-79
2022/01/22 06:19:26;;;;;;;10.18;1.40;;;6.40;99.90;;;;;;4859296;29;20042;-79
2022/01/22 06:21:53;;;;;;;9.50;2.08;;;6.40;99.90;;;;;;4843029;29;20453;-79
2022/01/22 06:24:21;;;;;;;9.05;2.00;;;6.40;99.90;;;;;;4837188;29;20033;-80
2022/01/22 06:26:48;;;;;;;10.20;2.10;;;6.40;99.90;;;;;;4861926;29;20036;-79
2022/01/22 06:29:14;;;;;;;10.10;2.47;;;6.40;99.90;;;;;;4863861;29;20405;-80
2022/01/22 06:31:41;;;;;;;6.70;2.08;;;6.40;99.90;;;;;;4861948;29;20051;-79
2022/01/22 06:34:08;;;;;;;5.95;2.28;;;6.40;99.90;;;;;;4848608;29;20037;-79
2022/01/22 06:36:36;;;;;;;7.47;2.58;;;6.40;99.90;;;;;;4861558;29;20037;-79
2022/01/22 06:39:19;;;;;;;6.68;2.50;;;6.40;99.90;;;;;;4855224;29;20371;-79
2022/01/22 06:42:05;;;;;;;9.20;2.95;;;6.40;99.90;;;;;;4858478;29;20057;-80
2022/01/22 06:44:48;;;;;;;5.97;2.28;;;6.50;99.90;;;;;;4858745;29;20045;-80
2022/01/22 06:47:33;;;;;;;7.63;2.55;;;6.50;99.90;;;;;;4848676;29;20064;-79
2022/01/22 06:49:59;;;;;;;9.98;3.60;;;6.50;99.90;;;;;;4862215;29;20037;-80
2022/01/22 06:52:44;;;;;;;15.35;3.83;;;6.50;99.90;;;;;;4846681;29;20045;-80
2022/01/22 06:55:22;;;;;;;10.48;3.13;;;6.50;99.90;;;;;;4853620;29;20052;-80
2022/01/22 06:57:48;;;;;;;10.73;4.30;;;6.50;99.90;;;;;;4845233;29;20049;-80
2022/01/22 07:00:25;;;;;;;9.52;4.63;;;6.50;99.90;;;;;;4851526;29;20052;-80
2022/01/22 07:03:02;;;;;;;10.55;4.63;;;6.50;99.90;;;;;;4815641;29;20041;-80
2022/01/22 07:05:29;;;;;;;10.70;4.30;;;6.40;99.90;;;;;;4877261;29;20037;-80
2022/01/22 07:08:08;;;;;;;11.15;4.90;;;6.50;99.90;;;;;;4860975;29;20394;-79
2022/01/22 07:10:38;;;;;;;10.32;5.05;;;6.50;99.90;;;;;;4859050;29;20393;-80
2022/01/22 07:13:05;;;;;;;9.55;4.60;;;6.50;99.90;;;;;;4831145;29;20079;-80
2022/01/22 07:15:32;;;;;;;12.80;5.05;;;6.50;99.90;;;;;;4847260;29;20037;-80
2022/01/22 07:18:07;;;;;;;9.45;5.05;;;6.50;99.90;;;;;;4835018;29;20037;-80
2022/01/22 07:20:38;;;;;;;14.77;5.93;;;6.50;99.90;;;;;;4858968;29;20053;-80
2022/01/22 07:23:19;;;;;;;9.40;5.07;;;6.50;99.90;;;;;;4832834;29;20045;-80
2022/01/22 07:25:54;;;;;;;10.05;4.35;;;6.50;99.90;;;;;;4852507;29;20045;-80
2022/01/22 07:28:46;;;;;;;8.73;4.07;;;6.50;99.90;;;;;;4845481;29;20064;-80
2022/01/22 07:31:13;;;;;;;12.73;5.55;;;6.50;99.90;;;;;;4845506;29;20049;-79
2022/01/22 07:33:41;;;;;;;14.43;5.85;;;6.50;99.90;;;;;;4844472;29;20037;-80
2022/01/22 07:36:09;;;;;;;15.65;5.20;;;6.50;99.90;;;;;;4861461;29;20499;-80
2022/01/22 07:38:38;;;;;;;11.73;4.40;;;6.50;99.90;;;;;;4842201;29;20056;-80
2022/01/22 07:41:11;;;;;;;13.30;3.58;;;6.50;99.90;;;;;;4860019;29;20508;-79
2022/01/22 07:43:43;;;;;;;10.75;3.53;;;6.50;99.90;;;;;;4861707;29;20033;-79
2022/01/22 07:46:38;;;;;;;10.88;4.05;;;6.60;99.90;;;;;;4857233;29;20029;-79
2022/01/22 07:49:19;;;;;;;9.00;2.63;;;6.60;99.90;;;;;;4860087;29;20044;-79
2022/01/22 07:51:55;;;;;;;9.23;3.55;;;6.60;99.90;;;;;;4861732;29;20046;-80
2022/01/22 07:54:21;;;;;;;9.18;4.05;;;6.60;99.90;;;;;;4859830;29;20057;-79
2022/01/22 07:56:48;;;;;;;6.30;3.83;;;6.60;99.90;;;;;;4831233;29;20410;-79
2022/01/22 07:59:17;;;;;;;7.70;2.63;;;6.60;99.90;;;;;;4860947;29;20041;-79
2022/01/22 08:01:51;;;;;;;9.15;3.28;;;6.60;99.90;;;;;;4845583;29;20398;-79
2022/01/22 08:04:24;;;;;;;9.88;4.22;;;6.60;99.90;;;;;;4860393;29;20033;-79
2022/01/22 08:07:10;;;;;;;11.65;3.60;;;6.70;99.90;;;;;;4858634;29;20516;-79
2022/01/22 08:09:42;;;;;;;11.98;3.47;;;6.70;99.90;;;;;;4860178;29;20040;-79
2022/01/22 08:12:20;;;;;;;8.57;3.25;;;6.70;99.90;;;;;;4850303;29;20045;-79
2022/01/22 08:14:48;;;;;;;8.52;3.20;;;6.70;99.90;;;;;;4871323;29;20056;-79
2022/01/22 08:17:15;;;;;;;9.20;3.70;;;6.70;99.90;;;;;;4848337;29;20041;-79
2022/01/22 08:19:42;;;;;;;7.47;2.80;;;6.70;99.90;;;;;;4879000;29;20025;-79
2022/01/22 08:22:47;;;;;;;11.32;2.97;;;6.70;99.90;;;;;;4853387;29;20109;-79
2022/01/22 08:25:33;;;;;;;10.10;2.63;;;6.70;99.90;;;;;;4883593;29;20462;-79
2022/01/22 08:31:17;;;;;;;11.85;2.72;;;6.80;99.90;;;;;;4846176;29;20068;-79
2022/01/22 08:36:29;;;;;;;9.43;2.38;;;6.80;99.90;;;;;;4861542;29;20060;-79
2022/01/22 08:38:56;;;;;;;12.65;2.75;;;6.90;99.90;;;;;;4860854;29;20044;-79
2022/01/22 08:41:25;;;;;;;9.48;2.53;;;6.90;99.90;;;;;;4838020;29;20037;-79
2022/01/22 08:43:54;;;;;;;7.43;2.40;;;6.90;99.90;;;;;;4882552;29;20029;-79
2022/01/22 08:46:24;;;;;;;13.98;3.55;;;6.90;99.90;;;;;;4860350;29;20033;-79
2022/01/22 08:48:51;;;;;;;9.82;2.53;;;6.90;99.90;;;;;;4863238;29;20029;-80
2022/01/22 08:51:17;;;;;;;9.80;2.75;;;6.90;99.90;;;;;;4865061;29;20037;-78
2022/01/22 08:53:47;;;;;;;9.00;2.70;;;7.00;99.90;;;;;;4849772;29;20029;-79
2022/01/22 08:56:13;;;;;;;9.75;2.75;;;7.00;99.90;;;;;;4836084;29;20040;-78
2022/01/22 08:58:43;;;;;;;11.48;2.28;;;7.00;99.90;;;;;;4884952;29;20033;-78
2022/01/22 09:01:18;;;;;;;14.32;3.70;;;7.00;99.90;;;;;;4852562;29;20389;-78
2022/01/22 09:03:49;;;;;;;9.70;2.58;;;7.00;99.90;;;;;;4861218;29;20044;-78
2022/01/22 09:06:31;;;;;;;13.63;3.23;;;7.00;99.90;;;;;;4853726;29;20041;-78
2022/01/22 09:09:25;;;;;;;9.38;2.83;;;7.00;99.90;;;;;;4842351;29;20296;-79
2022/01/22 09:11:55;;;;;;;9.02;2.67;;;7.00;99.90;;;;;;4850160;29;20071;-79
2022/01/22 09:14:37;;;;;;;8.50;2.53;;;7.00;99.90;;;;;;4846845;29;20057;-79
2022/01/22 09:17:05;;;;;;;7.53;2.22;;;7.00;99.90;;;;;;4862610;29;20049;-79
2022/01/22 09:19:35;;;;;;;13.75;3.33;;;7.00;99.90;;;;;;4843395;29;20037;-80
2022/01/22 09:22:07;;;;;;;7.95;2.78;;;7.00;99.90;;;;;;4845901;29;20036;-79
2022/01/22 09:24:34;;;;;;;7.68;2.08;;;7.00;99.90;;;;;;4845061;29;20052;-79
2022/01/22 09:27:04;;;;;;;15.25;3.00;;;7.00;99.90;;;;;;4845774;29;20044;-79
2022/01/22 09:29:35;;;;;;;11.07;2.42;;;7.00;99.90;;;;;;4845605;29;20045;-79
2022/01/22 09:32:03;;;;;;;6.57;1.95;;;7.00;99.90;;;;;;4843783;29;20048;-79
2022/01/22 09:34:55;;;;;;;8.93;1.92;;;7.10;99.90;;;;;;4852593;29;20037;-79
2022/01/22 09:37:42;;;;;;;12.63;2.75;;;7.10;99.90;;;;;;4851806;29;20041;-79
2022/01/22 09:40:27;;;;;;;8.35;3.00;;;7.10;99.90;;;;;;4866995;29;20041;-79
2022/01/22 09:43:23;;;;;;;9.23;2.30;;;7.00;99.90;;;;;;4874632;29;20049;-80
2022/01/22 09:46:07;;;;;;;9.52;2.33;;;7.10;99.90;;;;;;4829589;29;20406;-79
2022/01/22 09:48:54;;;;;;;15.00;2.60;;;7.10;99.90;;;;;;4862726;29;20028;-79
2022/01/22 09:51:53;;;;;;;8.55;2.08;;;7.10;99.90;;;;;;4822785;29;20863;-79
2022/01/22 09:54:30;;;;;;;8.55;2.08;;;7.10;99.90;;;;;;4849400;29;20053;-81
2022/01/22 09:57:04;;;;;;;;;;;7.10;99.90;;;;;;4843202;29;20041;-79
2022/01/22 09:59:52;;;;;;;6.35;2.00;;;7.10;99.90;;;;;;4875888;29;19918;-79
2022/01/22 10:02:43;;;;;;;8.40;2.30;;;7.20;99.90;;;;;;4859365;29;20528;-80
2022/01/22 10:05:37;;;;;;;6.65;2.35;;;7.20;99.90;;;;;;4849615;29;20041;-81
2022/01/22 10:08:28;;;;;;;9.18;1.80;;;7.20;99.90;;;;;;4879247;29;20055;-80
2022/01/22 10:11:19;;;;;;;7.55;2.35;;;7.30;99.90;;;;;;4878708;29;20067;-80
2022/01/22 10:14:11;;;;;;;8.90;2.00;;;7.30;99.90;;;;;;4862695;29;20048;-79
2022/01/22 10:16:39;;;;;;;11.98;1.95;;;7.40;99.90;;;;;;4862565;29;20481;-80
2022/01/22 10:19:38;;;;;;;8.77;1.90;;;7.40;99.90;;;;;;4868225;29;20040;-80
2022/01/22 10:22:04;;;;;;;10.55;2.63;;;7.40;99.90;;;;;;4812561;29;20049;-80
2022/01/22 10:24:47;;;;;;;12.23;3.38;;;7.50;99.90;;;;;;4839857;29;20032;-83
2022/01/22 10:30:02;;;;;;;10.93;2.58;;;7.50;99.90;;;;;;4850222;29;20408;-80
2022/01/22 10:35:26;;;;;;;9.75;2.55;;;7.50;99.90;;;;;;4877774;29;20060;-80
2022/01/22 10:38:16;;;;;;;11.45;3.92;;;7.50;99.90;;;;;;4836087;29;20049;-80
2022/01/22 10:40:42;;;;;;;10.77;3.42;;;7.60;99.90;;;;;;4844275;29;20036;-81
2022/01/22 10:43:30;;;;;;;13.73;3.35;;;7.50;99.90;;;;;;4846922;29;20036;-81
2022/01/22 10:46:31;;;;;;;15.15;3.38;;;7.50;99.90;;;;;;4849306;29;20033;-84
2022/01/22 10:48:57;;;;;;;9.40;3.20;;;7.50;99.90;;;;;;4860831;29;20052;-82
2022/01/22 10:51:28;;;;;;;11.93;2.97;;;7.50;99.90;;;;;;4866004;29;20385;-80
2022/01/22 10:54:02;;;;;;;9.98;2.90;;;7.60;99.90;;;;;;4860793;29;20436;-84
2022/01/22 10:56:32;;;;;;;11.55;3.47;;;7.60;99.90;;;;;;4849832;29;20036;-79
2022/01/22 10:58:58;;;;;;;13.00;4.03;;;7.60;99.90;;;;;;4832196;29;20040;-81
2022/01/22 11:01:28;;;;;;;11.07;4.03;;;7.60;99.90;;;;;;4836896;29;20055;-82
2022/01/22 11:04:12;;;;;;;9.65;3.75;;;7.60;99.90;;;;;;4862407;29;20074;-82
2022/01/22 11:06:45;;;;;;;8.90;3.60;;;7.60;99.90;;;;;;4854536;29;20036;-83
2022/01/22 11:09:12;;;;;;;9.00;3.00;;;7.60;99.90;;;;;;4886964;29;20485;-81
2022/01/22 11:11:40;;;;;;;9.15;2.95;;;7.60;99.90;;;;;;4872142;29;20063;-85
2022/01/22 11:14:10;;;;;;;6.47;2.60;;;7.60;99.90;;;;;;4849805;29;20049;-84
2022/01/22 11:16:38;;;;;;;9.70;3.47;;;7.50;99.90;;;;;;4872015;29;20143;-84
2022/01/22 11:19:09;;;;;;;7.20;2.42;;;7.60;99.90;;;;;;4882970;29;20044;-82
2022/01/22 11:21:40;;;;;;;8.30;2.85;;;7.60;99.90;;;;;;4871172;29;20033;-80
2022/01/22 11:24:13;;;;;;;9.00;3.03;;;7.60;99.90;;;;;;4870683;29;20378;-80
2022/01/22 11:26:42;;;;;;;9.75;3.83;;;7.60;99.90;;;;;;4866067;29;20067;-80
2022/01/22 11:29:12;;;;;;;7.18;2.22;;;7.60;99.90;;;;;;4853103;29;20365;-81
2022/01/22 11:31:40;;;;;;;9.02;2.50;;;7.70;99.90;;;;;;4852456;29;20474;-83
2022/01/22 11:34:07;;;;;;;8.60;2.25;;;7.60;99.90;;;;;;4840254;29;20044;-83
2022/01/22 11:37:01;;;;;;;8.00;2.30;;;7.60;99.90;;;;;;4850790;29;20041;-82
2022/01/22 11:39:31;;;;;;;7.20;2.78;;;7.60;99.90;;;;;;4867150;29;20402;-82
2022/01/22 11:42:05;;;;;;;7.40;2.42;;;7.60;99.90;;;;;;4852404;29;20393;-83
2022/01/22 11:44:48;;;;;;;11.85;3.25;;;7.60;99.90;;;;;;4885835;29;20032;-85
2022/01/22 11:47:20;;;;;;;;;;;7.60;99.90;;;;;;4853454;29;20052;-84
2022/01/22 11:50:07;;;;;;;6.00;2.57;;;7.60;99.90;;;;;;4869214;29;19916;-89
2022/01/22 11:52:37;;;;;;;11.73;3.63;;;7.60;99.90;;;;;;4882595;29;20045;-83
2022/01/22 11:55:12;;;;;;;14.85;4.20;;;7.60;99.90;;;;;;4878640;29;20048;-80
2022/01/22 11:57:40;;;;;;;11.90;3.40;;;7.60;99.90;;;;;;4848297;29;20049;-83
2022/01/22 12:00:17;;;;;;;9.20;3.05;;;7.60;99.90;;;;;;4849238;29;20368;-81
2022/01/22 12:02:43;;;;;;;9.85;2.72;;;7.60;99.90;;;;;;4866496;29;20056;-83
2022/01/22 12:05:09;;;;;;;11.65;2.47;;;7.70;99.90;;;;;;4866111;29;20037;-82
2022/01/22 12:07:36;;;;;;;8.40;3.08;;;7.70;99.90;;;;;;4851805;29;20409;-80
2022/01/22 12:10:34;;;;;;;8.75;3.00;;;7.70;99.90;;;;;;4838537;29;20048;-77
2022/01/22 12:16:11;;;;;;;6.78;2.83;;;7.80;99.90;;;;;;4865622;29;20092;-78
2022/01/22 12:18:45;;;;;;;7.03;2.70;;;7.80;99.90;;;;;;4852201;29;20044;-77
2022/01/22 12:21:33;;;;;;;12.50;3.42;;;7.80;99.90;;;;;;4865661;29;20042;-78
2022/01/22 12:24:12;;;;;;;8.98;3.28;;;7.90;99.90;;;;;;4863055;29;20100;-77
2022/01/22 12:26:46;;;;;;;7.28;3.38;;;7.90;99.90;;;;;;4848365;29;20385;-77
2022/01/22 12:29:39;;;;;;;8.10;2.63;;;7.80;99.90;;;;;;4862719;29;20045;-77
2022/01/22 12:32:09;;;;;;;6.57;2.42;;;7.90;99.90;;;;;;4847380;29;20053;-78
2022/01/22 12:34:55;;;;;;;7.60;2.88;;;7.90;99.90;;;;;;4832243;29;20045;-77
2022/01/22 12:37:22;;;;;;;7.88;3.95;;;7.90;99.90;;;;;;4880389;29;20033;-79
2022/01/22 12:39:52;;;;;;;6.38;2.15;;;7.90;99.90;;;;;;4864733;29;20033;-79
2022/01/22 12:42:28;;;;;;;7.78;2.67;;;7.90;99.90;;;;;;4833266;29;20033;-78
2022/01/22 12:45:06;;;;;;;5.65;2.60;;;8.00;99.90;;;;;;4850255;29;20033;-77
2022/01/22 12:47:33;;;;;;;7.03;2.85;;;8.00;99.90;;;;;;4860830;29;20037;-80
2022/01/22 12:50:08;;;;;;;7.60;3.03;;;8.00;99.90;;;;;;4854220;29;20037;-75
2022/01/22 12:52:35;;;;;;;7.20;2.75;;;8.00;99.90;;;;;;4862047;29;20055;-75
2022/01/22 12:55:16;;;;;;;7.35;2.75;;;8.00;99.90;;;;;;4869018;29;20043;-76
2022/01/22 12:57:43;;;;;;;5.45;2.22;;;8.00;99.90;;;;;;4850657;29;20484;-76
2022/01/22 13:00:17;;;;;;;6.93;3.00;;;8.00;99.90;;;;;;4851907;29;20037;-77
2022/01/22 13:02:46;;;;;;;8.57;3.17;;;8.00;99.90;;;;;;4866122;29;20049;-77
2022/01/22 13:05:15;;;;;;;10.10;2.45;;;8.00;99.90;;;;;;4862340;29;20056;-75
2022/01/22 13:08:11;;;;;;;8.10;3.45;;;8.00;99.90;;;;;;4861511;29;20048;-77
2022/01/22 13:11:00;;;;;;;7.90;2.80;;;8.00;99.90;;;;;;4851191;29;20059;-77
2022/01/22 13:13:28;;;;;;;5.38;2.70;;;8.00;99.90;;;;;;4844280;29;20060;-76
2022/01/22 13:16:21;;;;;;;7.70;4.00;;;8.00;99.90;;;;;;4842531;29;20045;-76
2022/01/22 13:18:56;;;;;;;5.65;2.95;;;8.00;99.90;;;;;;4848325;29;20060;-76
2022/01/22 13:21:28;;;;;;;6.40;2.97;;;8.00;99.90;;;;;;4881498;29;20040;-79
2022/01/22 13:24:25;;;;;;;6.80;2.80;;;8.00;99.90;;;;;;4848846;29;20033;-77
2022/01/22 13:29:41;;;;;;;4.95;2.22;;;8.00;99.90;;;;;;4867781;29;20388;-77
2022/01/22 13:32:13;;;;;;;8.82;2.90;;;8.00;99.90;;;;;;4860273;29;20043;-75
2022/01/22 13:49:48;;;;;;;5.90;4.05;;;7.90;99.90;;;;;;4883354;29;20044;-77
2022/01/22 13:52:19;;;;;;;9.57;4.22;;;7.90;99.90;;;;;;4859062;29;20048;-77
2022/01/22 13:54:51;;;;;;;8.32;4.30;;;7.90;99.90;;;;;;4863774;29;20041;-77
2022/01/22 13:57:28;;;;;;;8.20;4.60;;;7.80;99.90;;;;;;4852082;29;20150;-77
2022/01/22 14:00:25;;;;;;;13.63;6.15;;;7.80;99.90;;;;;;4837379;29;20044;-77
2022/01/22 14:05:17;;;;;;;8.80;5.32;;;7.80;99.90;;;;;;4877318;29;20040;-76
2022/01/22 14:08:28;;;;;;;13.40;6.55;;;7.90;99.90;;;;;;4867719;29;20055;-77
2022/01/22 14:11:03;;;;;;;9.63;6.10;;;7.90;99.90;;;;;;4849138;29;20052;-78
2022/01/22 14:13:29;;;;;;;12.68;6.65;;;7.90;99.90;;;;;;4862400;29;20053;-78
2022/01/22 14:15:56;;;;;;;9.02;5.88;;;7.90;99.90;;;;;;4879761;29;20051;-76
2022/01/22 14:18:38;;;;;;;10.35;5.13;;;7.90;99.90;;;;;;4876694;29;20465;-78
2022/01/22 14:21:20;;;;;;;11.73;5.65;;;7.90;99.90;;;;;;4853377;29;20396;-77
2022/01/22 14:23:52;;;;;;;8.25;5.63;;;7.90;99.90;;;;;;4852284;29;20041;-78
2022/01/22 14:26:33;;;;;;;12.60;6.00;;;7.90;99.90;;;;;;4864396;29;20052;-77
2022/01/22 14:29:14;;;;;;;13.45;6.63;;;7.90;99.90;;;;;;4875912;29;20045;-77
2022/01/22 14:31:43;;;;;;;9.60;6.15;;;7.90;99.90;;;;;;4852115;29;20025;-78
2022/01/22 14:34:12;;;;;;;11.00;6.63;;;7.90;99.90;;;;;;4865176;29;20037;-77
2022/01/22 14:36:43;;;;;;;9.30;5.40;;;7.90;99.90;;;;;;4875070;29;20036;-77
2022/01/22 14:39:29;;;;;;;8.60;5.00;;;7.90;99.90;;;;;;4832611;29;20076;-77
2022/01/22 14:44:42;;;;;;;11.48;5.40;;;7.90;99.90;;;;;;4882629;29;20041;-80
2022/01/22 14:47:20;;;;;;;8.23;5.47;;;7.90;99.90;;;;;;4866253;29;20091;-79
2022/01/22 14:50:01;;;;;;;11.75;6.15;;;7.90;99.90;;;;;;4857691;29;20074;-79
2022/01/22 14:52:28;;;;;;;10.50;6.70;;;7.90;99.90;;;;;;4882007;29;20550;-80
2022/01/22 14:55:03;;;;;;;9.75;6.07;;;7.90;99.90;;;;;;4830493;29;20064;-80
2022/01/22 14:57:34;;;;;;;9.60;5.72;;;7.90;99.90;;;;;;4866219;29;20155;-80
2022/01/22 15:00:07;;;;;;;8.15;5.55;;;7.90;99.90;;;;;;4881585;29;20045;-79
2022/01/22 15:02:38;;;;;;;9.60;5.78;;;7.90;99.90;;;;;;4880002;29;20037;-80
2022/01/22 15:05:08;;;;;;;13.43;6.40;;;7.90;99.90;;;;;;4866980;29;20390;-80
2022/01/22 15:07:36;;;;;;;12.55;6.05;;;7.90;99.90;;;;;;4860025;29;20041;-79
2022/01/22 15:10:06;;;;;;;13.23;6.15;;;7.90;99.90;;;;;;4866584;29;20036;-81
2022/01/22 15:12:37;;;;;;;9.35;5.25;;;7.90;99.90;;;;;;4848082;29;20055;-80
2022/01/22 15:15:06;;;;;;;12.52;6.82;;;7.80;99.90;;;;;;4856491;29;20040;-81
2022/01/22 15:20:03;;;;;;;7.47;5.07;;;7.90;99.90;;;;;;4882027;29;20060;-80
2022/01/22 15:22:33;;;;;;;8.73;5.05;;;7.80;99.90;;;;;;4854936;29;20140;-81
2022/01/22 15:24:59;;;;;;;13.07;5.78;;;7.80;99.90;;;;;;4861843;29;20533;-80
2022/01/22 15:27:26;;;;;;;13.93;6.38;;;7.80;99.90;;;;;;4845691;29;20045;-80